createdAt,value
2023-02-11T00:00:43.462Z,16.10
2023-02-11T00:03:46.164Z,14.70
2023-02-11T00:06:47.539Z,15.23
2023-02-11T00:09:50.771Z,14.03
2023-02-11T00:12:52.075Z,14.70
2023-02-11T00:15:55.870Z,14.63
2023-02-11T00:18:59.130Z,16.00
2023-02-11T00:22:01.685Z,15.52
2023-02-11T00:25:05.442Z,13.60
2023-02-11T00:28:06.890Z,14.73
2023-02-11T00:31:09.740Z,14.35
2023-02-11T00:34:11.108Z,15.18
2023-02-11T00:37:12.901Z,15.38
2023-02-11T00:40:16.562Z,15.17
2023-02-11T00:43:17.899Z,15.23
2023-02-11T00:46:21.002Z,15.63
2023-02-11T00:52:44.290Z,14.23
2023-02-11T00:55:47.670Z,15.17
2023-02-11T00:58:49.303Z,15.03
2023-02-11T01:01:51.844Z,15.55
2023-02-11T01:04:54.555Z,15.13
2023-02-11T01:07:55.943Z,14.45
2023-02-11T01:11:00.226Z,15.60
2023-02-11T01:14:02.019Z,15.73
2023-02-11T01:17:06.243Z,15.13
2023-02-11T01:20:14.605Z,15.43
2023-02-11T01:23:17.163Z,15.60
2023-02-11T01:26:20.604Z,14.27
2023-02-11T01:29:21.878Z,15.10
2023-02-11T01:32:24.478Z,15.48
2023-02-11T01:35:25.739Z,15.20
2023-02-11T01:38:28.255Z,15.50
2023-02-11T01:41:31.630Z,15.07
2023-02-11T01:44:35.618Z,14.17
2023-02-11T01:47:38.181Z,14.82
2023-02-11T01:50:42.596Z,14.98
2023-02-11T01:54:05.710Z,15.30
2023-02-11T01:57:25.393Z,15.27
2023-02-11T02:00:31.792Z,14.93
2023-02-11T02:03:37.389Z,15.52
2023-02-11T02:06:48.725Z,15.35
2023-02-11T02:09:59.661Z,15.90
2023-02-11T02:13:01.606Z,15.50
2023-02-11T02:16:09.483Z,15.50
2023-02-11T02:19:57.048Z,14.57
2023-02-11T02:23:31.552Z,15.93
2023-02-11T02:26:53.738Z,15.07
2023-02-11T02:30:13.090Z,15.53
2023-02-11T02:33:37.365Z,15.43
2023-02-11T02:36:46.361Z,16.17
2023-02-11T02:39:50.018Z,14.75
2023-02-11T02:42:54.654Z,15.95
2023-02-11T02:46:08.633Z,16.37
2023-02-11T02:49:14.619Z,16.17
2023-02-11T02:52:29.273Z,15.63
2023-02-11T02:55:41.185Z,14.30
2023-02-11T02:58:55.993Z,14.40
2023-02-11T03:02:08.387Z,15.17
2023-02-11T03:05:19.439Z,15.07
2023-02-11T03:08:27.838Z,15.43
2023-02-11T03:11:30.493Z,16.20
2023-02-11T03:14:34.614Z,15.48
2023-02-11T03:17:39.104Z,16.27
2023-02-11T03:20:45.434Z,15.67
2023-02-11T03:23:51.152Z,15.93
2023-02-11T03:26:55.653Z,15.50
2023-02-11T03:33:33.317Z,16.80
2023-02-11T03:40:11.025Z,16.25
2023-02-11T03:43:17.280Z,15.90
2023-02-11T03:46:24.619Z,15.70
2023-02-11T03:49:27.200Z,15.60
2023-02-11T03:52:31.509Z,16.83
2023-02-11T03:55:37.743Z,16.25
2023-02-11T03:58:39.026Z,17.05
2023-02-11T04:01:41.886Z,16.05
2023-02-11T04:04:43.668Z,17.23
2023-02-11T04:07:46.855Z,16.97
2023-02-11T04:10:48.143Z,16.58
2023-02-11T04:13:50.733Z,16.67
2023-02-11T04:16:53.251Z,16.08
2023-02-11T04:19:54.610Z,17.10
2023-02-11T04:22:57.807Z,17.73
2023-02-11T04:25:59.197Z,16.88
2023-02-11T04:29:01.740Z,16.00
2023-02-11T04:32:04.466Z,16.52
2023-02-11T04:35:06.496Z,17.37
2023-02-11T04:38:09.707Z,17.60
2023-02-11T04:41:11.034Z,17.52
2023-02-11T04:44:13.692Z,18.40
2023-02-11T04:47:16.350Z,16.90
2023-02-11T04:50:17.916Z,16.10
2023-02-11T04:53:21.229Z,17.93
2023-02-11T04:56:22.613Z,16.38
2023-02-11T04:59:25.500Z,18.27
2023-02-11T05:02:28.225Z,17.40
2023-02-11T05:05:29.512Z,18.03
2023-02-11T05:08:33.335Z,18.10
2023-02-11T05:11:35.914Z,19.33
2023-02-11T05:14:38.424Z,19.40
2023-02-11T05:17:40.960Z,19.15
2023-02-11T05:20:43.225Z,20.23
2023-02-11T05:23:47.106Z,18.07
2023-02-11T05:26:48.402Z,20.25
2023-02-11T05:29:50.994Z,18.98
2023-02-11T05:32:52.308Z,21.42
2023-02-11T05:35:58.257Z,18.97
2023-02-11T05:39:00.213Z,18.80
2023-02-11T05:42:02.786Z,20.40
2023-02-11T05:45:05.878Z,20.23
2023-02-11T05:51:29.348Z,18.37
2023-02-11T05:54:33.660Z,19.17
2023-02-11T05:57:36.373Z,19.30
2023-02-11T06:00:39.111Z,20.95
2023-02-11T06:03:40.466Z,19.83
2023-02-11T06:06:43.009Z,19.70
2023-02-11T06:09:45.060Z,20.23
2023-02-11T06:12:47.628Z,20.25
2023-02-11T06:15:57.134Z,18.65
2023-02-11T06:18:58.439Z,20.80
2023-02-11T06:22:01.018Z,21.70
2023-02-11T06:25:04.617Z,22.50
2023-02-11T06:28:06.024Z,21.83
2023-02-11T06:31:10.195Z,20.25
2023-02-11T06:34:12.859Z,20.80
2023-02-11T06:37:14.188Z,20.57
2023-02-11T06:40:17.588Z,20.70
2023-02-11T06:43:18.920Z,22.83
2023-02-11T06:46:21.556Z,23.85
2023-02-11T06:49:24.101Z,21.67
2023-02-11T06:52:25.488Z,22.53
2023-02-11T06:55:28.988Z,22.87
2023-02-11T06:58:30.282Z,20.90
2023-02-11T07:01:33.084Z,22.58
2023-02-11T07:04:34.393Z,22.52
2023-02-11T07:07:37.196Z,21.13
2023-02-11T07:10:40.635Z,22.53
2023-02-11T07:13:42.605Z,23.23
2023-02-11T07:16:45.243Z,24.02
2023-02-11T07:19:46.538Z,22.40
2023-02-11T07:22:49.102Z,21.23
2023-02-11T07:25:51.245Z,22.13
2023-02-11T07:28:54.316Z,21.88
2023-02-11T07:31:56.837Z,21.58
2023-02-11T07:34:58.402Z,22.23
2023-02-11T07:38:00.909Z,22.67
2023-02-11T07:41:04.373Z,20.33
2023-02-11T07:44:07.526Z,20.60
2023-02-11T07:47:10.038Z,21.70
2023-02-11T07:50:11.330Z,21.25
2023-02-11T07:53:15.767Z,21.87
2023-02-11T07:56:20.978Z,21.80
2023-02-11T07:59:24.092Z,21.73
2023-02-11T08:02:26.779Z,21.20
2023-02-11T08:05:28.067Z,20.27
2023-02-11T08:08:30.609Z,20.97
2023-02-11T08:11:33.958Z,22.00
2023-02-11T08:14:35.475Z,21.60
2023-02-11T08:17:38.054Z,21.45
2023-02-11T08:20:39.372Z,21.50
2023-02-11T08:23:43.774Z,21.17
2023-02-11T08:26:45.728Z,21.67
2023-02-11T08:29:48.312Z,22.70
2023-02-11T08:32:50.861Z,20.55
2023-02-11T08:35:52.249Z,23.10
2023-02-11T08:39:05.671Z,21.97
2023-02-11T08:42:16.242Z,19.53
2023-02-11T08:45:17.660Z,20.70
2023-02-11T08:48:20.208Z,22.33
2023-02-11T08:51:23.512Z,20.08
2023-02-11T08:54:26.150Z,19.50
2023-02-11T08:57:29.412Z,20.47
2023-02-11T09:00:31.230Z,20.23
2023-02-11T09:03:33.878Z,20.23
2023-02-11T09:06:35.184Z,20.30
2023-02-11T09:09:37.842Z,20.57
2023-02-11T09:12:39.931Z,20.13
2023-02-11T09:15:46.039Z,19.88
2023-02-11T09:18:49.526Z,20.10
2023-02-11T09:21:50.874Z,20.08
2023-02-11T09:24:53.506Z,20.50
2023-02-11T09:27:56.789Z,18.80
2023-02-11T09:30:58.180Z,19.13
2023-02-11T09:34:03.148Z,20.40
2023-02-11T09:37:04.420Z,20.70
2023-02-11T09:40:07.787Z,20.37
2023-02-11T09:43:16.185Z,19.67
2023-02-11T09:46:19.377Z,19.00
2023-02-11T09:49:26.847Z,18.95
2023-02-11T09:52:37.016Z,18.67
2023-02-11T09:55:43.588Z,19.37
2023-02-11T09:58:46.435Z,17.83
2023-02-11T10:01:54.295Z,19.98
2023-02-11T10:05:26.960Z,18.40
2023-02-11T10:08:34.590Z,18.95
2023-02-11T10:11:47.045Z,18.33
2023-02-11T10:15:04.488Z,16.47
2023-02-11T10:18:34.205Z,16.50
2023-02-11T10:21:47.145Z,16.95
2023-02-11T10:24:52.300Z,17.77
2023-02-11T10:27:59.905Z,16.77
2023-02-11T10:31:07.815Z,16.83
2023-02-11T10:34:10.711Z,17.33
2023-02-11T10:37:14.775Z,17.17
2023-02-11T10:40:18.243Z,16.77
2023-02-11T10:43:25.099Z,17.37
2023-02-11T10:46:32.133Z,17.20
2023-02-11T10:53:20.951Z,15.27
2023-02-11T10:56:26.823Z,15.07
2023-02-11T10:59:32.215Z,16.90
2023-02-11T11:02:38.036Z,15.50
2023-02-11T11:05:49.440Z,16.02
2023-02-11T11:08:52.767Z,16.02
2023-02-11T11:11:55.274Z,15.82
2023-02-11T11:14:58.965Z,16.17
2023-02-11T11:18:21.934Z,16.90
2023-02-11T11:21:25.696Z,16.60
2023-02-11T11:24:30.887Z,16.42
2023-02-11T11:27:32.539Z,15.60
2023-02-11T11:30:42.421Z,14.93
2023-02-11T11:33:46.475Z,15.37
2023-02-11T11:36:50.795Z,16.20
2023-02-11T11:39:56.844Z,13.68
2023-02-11T11:43:15.905Z,14.57
2023-02-11T11:46:23.596Z,14.47
2023-02-11T11:49:33.764Z,14.23
2023-02-11T11:52:45.921Z,12.18
2023-02-11T11:55:59.669Z,14.38
2023-02-11T11:59:10.039Z,14.23
2023-02-11T12:02:46.406Z,13.50
2023-02-11T12:05:59.836Z,14.43
2023-02-11T12:09:10.733Z,12.93
2023-02-11T12:12:27.158Z,13.07
2023-02-11T12:15:36.944Z,12.98
2023-02-11T12:19:04.742Z,11.43
2023-02-11T12:22:12.084Z,11.97
2023-02-11T12:25:25.438Z,11.43
2023-02-11T12:28:41.656Z,12.07
2023-02-11T12:31:56.040Z,10.98
2023-02-11T12:39:02.972Z,11.87
2023-02-11T12:42:46.152Z,10.55
2023-02-11T12:46:12.766Z,10.68
2023-02-11T12:49:40.926Z,10.93
2023-02-11T12:53:00.786Z,11.93
2023-02-11T12:56:07.854Z,11.10
2023-02-11T13:02:46.853Z,11.63
2023-02-11T13:05:52.285Z,9.90
2023-02-11T13:09:00.783Z,11.57
2023-02-11T13:12:27.950Z,10.47
2023-02-11T13:15:31.703Z,10.48
2023-02-11T13:18:44.757Z,10.70
2023-02-11T13:22:09.937Z,11.02
2023-02-11T13:25:21.334Z,10.60
2023-02-11T13:28:36.982Z,11.23
2023-02-11T13:31:38.511Z,10.73
2023-02-11T13:35:00.251Z,9.70
2023-02-11T13:38:03.272Z,10.20
2023-02-11T13:41:21.293Z,10.03
2023-02-11T13:44:27.549Z,9.87
2023-02-11T13:47:31.207Z,9.55
2023-02-11T13:50:38.993Z,10.82
2023-02-11T13:53:48.813Z,10.40
2023-02-11T13:57:24.563Z,9.50
2023-02-11T14:00:47.861Z,9.40
2023-02-11T14:04:48.801Z,10.13
2023-02-11T14:08:38.788Z,9.40
2023-02-11T14:11:49.546Z,9.02
2023-02-11T14:15:20.578Z,10.17
2023-02-11T14:18:38.577Z,9.17
2023-02-11T14:21:44.188Z,8.57
2023-02-11T14:24:50.241Z,10.02
2023-02-11T14:27:57.559Z,9.32
2023-02-11T14:31:07.159Z,9.63
2023-02-11T14:34:31.415Z,9.83
2023-02-11T14:37:50.444Z,9.27
2023-02-11T14:41:00.957Z,8.77
2023-02-11T14:44:07.195Z,9.05
2023-02-11T14:47:18.233Z,9.07
2023-02-11T14:50:24.715Z,9.83
2023-02-11T14:53:31.371Z,9.25
2023-02-11T14:56:33.699Z,9.43
2023-02-11T14:59:36.757Z,9.18
2023-02-11T15:02:38.817Z,8.90
2023-02-11T15:05:42.069Z,9.23
2023-02-11T15:08:46.762Z,8.57
2023-02-11T15:11:51.491Z,9.30
2023-02-11T15:14:55.034Z,9.20
2023-02-11T15:18:00.549Z,9.10
2023-02-11T15:21:02.929Z,7.97
2023-02-11T15:24:07.655Z,8.88
2023-02-11T15:27:14.055Z,8.35
2023-02-11T15:30:29.062Z,8.82
2023-02-11T15:33:31.896Z,9.43
2023-02-11T15:36:35.493Z,8.00
2023-02-11T15:39:40.263Z,8.57
2023-02-11T15:42:57.390Z,8.55
2023-02-11T15:46:03.005Z,8.35
2023-02-11T15:49:04.753Z,8.43
2023-02-11T15:52:09.074Z,8.40
2023-02-11T15:55:14.710Z,8.63
2023-02-11T15:58:17.388Z,8.23
2023-02-11T16:01:20.139Z,7.20
2023-02-11T16:04:24.014Z,7.90
2023-02-11T16:07:42.052Z,8.20
2023-02-11T16:10:57.476Z,7.90
2023-02-11T16:14:01.557Z,7.35
2023-02-11T16:17:07.875Z,7.05
2023-02-11T16:20:18.091Z,7.20
2023-02-11T16:23:25.042Z,6.73
2023-02-11T16:26:30.858Z,6.00
2023-02-11T16:29:36.680Z,6.53
2023-02-11T16:32:38.204Z,6.18
2023-02-11T16:35:40.947Z,6.40
2023-02-11T16:38:42.901Z,5.97
2023-02-11T16:41:45.624Z,5.47
2023-02-11T16:44:46.906Z,6.57
2023-02-11T16:47:49.546Z,5.95
2023-02-11T16:50:53.452Z,5.90
2023-02-11T16:53:55.619Z,6.40
2023-02-11T16:56:58.400Z,6.18
2023-02-11T16:59:59.648Z,5.63
2023-02-11T17:03:02.201Z,6.33
2023-02-11T17:06:06.303Z,6.45
2023-02-11T17:09:15.102Z,6.43
2023-02-11T17:12:17.621Z,6.00
2023-02-11T17:15:18.919Z,6.03
2023-02-11T17:18:21.507Z,6.77
2023-02-11T17:21:28.755Z,5.88
2023-02-11T17:24:32.052Z,5.55
2023-02-11T17:27:34.936Z,6.32
2023-02-11T17:30:38.406Z,6.20
2023-02-11T17:33:41.062Z,6.57
2023-02-11T17:40:04.679Z,5.55
2023-02-11T17:43:07.280Z,5.75
2023-02-11T17:46:09.266Z,5.50
2023-02-11T17:49:12.212Z,5.27
2023-02-11T17:52:13.476Z,5.15
2023-02-11T17:55:15.519Z,5.80
2023-02-11T17:58:18.083Z,4.88
2023-02-11T18:01:19.607Z,4.80
2023-02-11T18:04:22.443Z,5.30
2023-02-11T18:07:25.824Z,4.78
2023-02-11T18:10:27.998Z,5.95
2023-02-11T18:13:30.930Z,6.78
2023-02-11T18:16:34.177Z,5.03
2023-02-11T18:19:38.042Z,4.73
2023-02-11T18:22:40.228Z,5.00
2023-02-11T18:25:43.437Z,4.75
2023-02-11T18:28:46.521Z,4.60
2023-02-11T18:31:49.108Z,4.50
2023-02-11T18:34:51.658Z,4.77
2023-02-11T18:37:54.246Z,4.55
2023-02-11T18:40:57.936Z,4.97
2023-02-11T18:44:03.470Z,5.63
2023-02-11T18:47:04.830Z,4.50
2023-02-11T18:50:09.829Z,4.53
2023-02-11T18:53:14.181Z,5.60
2023-02-11T18:56:18.540Z,5.07
2023-02-11T18:59:21.094Z,4.88
2023-02-11T19:02:24.077Z,5.37
2023-02-11T19:08:50.198Z,5.32
2023-02-11T19:11:53.345Z,4.70
2023-02-11T19:14:55.854Z,5.30
2023-02-11T19:17:57.109Z,5.47
2023-02-11T19:20:59.678Z,5.13
2023-02-11T19:24:07.538Z,5.60
2023-02-11T19:27:10.043Z,5.38
2023-02-11T19:30:13.339Z,5.32
2023-02-11T19:33:14.628Z,5.87
2023-02-11T19:36:17.765Z,5.80
2023-02-11T19:39:20.281Z,5.28
2023-02-11T19:42:22.237Z,5.60
2023-02-11T19:45:24.833Z,5.47
2023-02-11T19:48:26.087Z,5.23
2023-02-11T19:51:28.879Z,5.30
2023-02-11T19:54:31.390Z,4.70
2023-02-11T19:57:33.357Z,4.93
2023-02-11T20:00:35.874Z,4.60
2023-02-11T20:03:40.789Z,4.70
2023-02-11T20:06:45.470Z,4.60
2023-02-11T20:09:46.795Z,5.15
2023-02-11T20:12:50.171Z,4.70
2023-02-11T20:19:16.822Z,4.87
2023-02-11T20:22:19.416Z,5.13
2023-02-11T20:25:21.979Z,4.30
2023-02-11T20:28:23.962Z,4.60
2023-02-11T20:31:26.633Z,4.55
2023-02-11T20:34:28.640Z,4.87
2023-02-11T20:37:33.510Z,4.40
2023-02-11T20:40:34.806Z,4.40
2023-02-11T20:43:38.356Z,4.50
2023-02-11T20:46:43.584Z,4.32
2023-02-11T20:49:44.946Z,4.10
2023-02-11T20:52:48.893Z,4.73
2023-02-11T20:55:50.445Z,4.60
2023-02-11T20:58:57.427Z,4.43
2023-02-11T21:05:21.298Z,3.87
2023-02-11T21:08:23.917Z,4.53
2023-02-11T21:11:25.186Z,4.15
2023-02-11T21:14:28.675Z,4.00
2023-02-11T21:17:31.189Z,3.47
2023-02-11T21:20:32.502Z,4.23
2023-02-11T21:23:36.210Z,3.60
2023-02-11T21:26:38.233Z,3.90
2023-02-11T21:29:53.446Z,3.83
2023-02-11T21:32:58.546Z,3.83
2023-02-11T21:36:01.742Z,4.07
2023-02-11T21:39:04.676Z,4.07
2023-02-11T21:42:06.001Z,3.65
2023-02-11T21:45:10.567Z,4.35
2023-02-11T21:48:12.633Z,4.50
2023-02-11T21:51:17.616Z,3.63
2023-02-11T21:54:20.596Z,4.10
2023-02-11T21:57:21.898Z,4.20
2023-02-11T22:00:25.467Z,3.85
2023-02-11T22:03:28.611Z,4.32
2023-02-11T22:06:34.134Z,3.73
2023-02-11T22:09:38.988Z,4.50
2023-02-11T22:12:40.324Z,4.22
2023-02-11T22:15:43.514Z,4.30
2023-02-11T22:18:45.544Z,4.03
2023-02-11T22:21:48.069Z,3.87
2023-02-11T22:24:50.829Z,3.53
2023-02-11T22:27:52.154Z,3.80
2023-02-11T22:30:56.348Z,3.60
2023-02-11T22:33:59.828Z,4.03
2023-02-11T22:37:01.899Z,4.83
2023-02-11T22:40:04.849Z,3.70
2023-02-11T22:43:06.184Z,3.70
2023-02-11T22:46:09.715Z,3.70
2023-02-11T22:49:15.091Z,4.00
2023-02-11T22:52:16.539Z,4.17
2023-02-11T22:55:19.102Z,4.07
2023-02-11T22:58:20.398Z,4.20
2023-02-11T23:01:23.598Z,4.22
2023-02-11T23:04:24.860Z,4.22
2023-02-11T23:07:27.378Z,4.10
2023-02-11T23:10:30.251Z,3.77
2023-02-11T23:13:34.535Z,4.07
2023-02-11T23:16:37.793Z,3.70
2023-02-11T23:19:39.241Z,4.10
2023-02-11T23:22:41.780Z,3.70
2023-02-11T23:25:43.728Z,3.80
2023-02-11T23:28:46.936Z,4.40
2023-02-11T23:31:50.617Z,3.60
2023-02-11T23:34:52.251Z,4.00
2023-02-11T23:37:54.922Z,3.58
2023-02-11T23:44:17.122Z,3.95
2023-02-11T23:47:19.116Z,3.83
2023-02-11T23:50:21.810Z,3.80
2023-02-11T23:53:24.330Z,3.92
2023-02-11T23:56:27.119Z,3.80
2023-02-11T23:59:29.662Z,3.63
